Impacts METAR Board
IDs:

KPHX - Phoenix/Sky Harbor, AZ, US

Updated at: 1400 UTC 13 Dec 2018
Potential Impact None Slight Moderate High
Time 13/02Z 13/03Z 13/04Z 13/05Z 13/06Z 13/07Z 13/08Z 13/09Z 13/10Z 13/11Z 13/12Z 13/13Z 13/14Z
Temp60 61 57 59 54 55 51 50 49 49 47 45 43
Dewpt41 41 42 40 41 41 41 41 41 41 41 40 40
Altim30.02 30.03 30.08 30.07 30.10 30.12 30.14 30.15 30.15 30.17 30.18 30.21 30.24
VIS10 10 10 10 10 10 10 10 10 10 10 10 10
CIG-- -- -- -- -- -- -- -- -- -- -- -- --
CoverCLRCLRCLRCLRCLRFEWCLRCLRCLRCLRCLRCLRSCT
FltCatVFRVFRVFRVFRVFRVFRVFRVFRVFRVFRVFRVFRVFR
WX--------------------------
WDir03301002800301000050800230
WSpd0 3 4 10 0 3 5 0 6 4 3 0 4
WGst-- -- -- -- -- -- -- -- -- -- -- -- --
Raw hourly METARs
KPHX 130151Z 00000KT 10SM CLR 16/05 A3002 RMK AO2 SLP159 T01560050
KPHX 130251Z 33003KT 10SM CLR 16/05 A3003 RMK AO2 SLP164 T01610050 52011
KPHX 130351Z 10004KT 10SM CLR 14/06 A3008 RMK AO2 SLP179 T01390056
KPHX 130451Z 28010KT 10SM CLR 15/04 A3007 RMK AO2 SLP177 T01500044
KPHX 130551Z 00000KT 10SM CLR 12/05 A3010 RMK AO2 SLP185 T01220050 10183 20122 51020
KPHX 130651Z 03003KT 10SM FEW250 13/05 A3012 RMK AO2 SLP195 T01280050 402000078
KPHX 130751Z 10005KT 10SM CLR 11/05 A3014 RMK AO2 SLP198 T01060050
KPHX 130851Z 00000KT 10SM CLR 10/05 A3015 RMK AO2 SLP203 T01000050 51018
KPHX 130951Z VRB06KT 10SM CLR 09/05 A3015 RMK AO2 SLP204 T00940050
KPHX 131051Z 05004KT 10SM CLR 09/05 A3017 RMK AO2 SLP212 T00940050
KPHX 131151Z 08003KT 10SM CLR 08/05 A3018 RMK AO2 SLP215 T00830050 10133 20078 53011
KPHX 131251Z 00000KT 10SM CLR 07/04 A3021 RMK AO2 SLP226 T00720044
KPHX 131351Z 23004KT 10SM SCT250 06/04 A3024 RMK AO2 SLP236 T00610044



Page loaded:  14:35 UTC  |   06:35 AM Pacific  |   07:35 AM Mountain  |   08:35 AM Central  |   09:35 AM Eastern

 

ADVISORIES

FORECASTS

FORECASTS

OBSERVATIONS

USER TOOLS

ABOUT US